sensor_id;sensor_type;location;lat;lon;timestamp;pressure;altitude;pressure_sealevel;temperature;humidity
69980;BME280;57318;56.232;43.944;2023-04-10T00:01:27;99993.78;;;5.89;36.43
69980;BME280;57318;56.232;43.944;2023-04-10T00:04:00;100002.69;;;5.86;36.05
69980;BME280;57318;56.232;43.944;2023-04-10T00:06:25;100004.66;;;5.83;35.76
69980;BME280;57318;56.232;43.944;2023-04-10T00:08:52;100001.34;;;5.79;35.87
69980;BME280;57318;56.232;43.944;2023-04-10T00:11:18;100000.72;;;5.74;35.93
69980;BME280;57318;56.232;43.944;2023-04-10T00:13:43;100000.72;;;5.74;36.16
69980;BME280;57318;56.232;43.944;2023-04-10T00:16:10;99994.66;;;5.72;35.98
69980;BME280;57318;56.232;43.944;2023-04-10T00:18:35;99997.44;;;5.69;35.92
69980;BME280;57318;56.232;43.944;2023-04-10T00:21:02;100005.28;;;5.70;36.15
69980;BME280;57318;56.232;43.944;2023-04-10T00:23:28;100000.97;;;5.69;36.37
69980;BME280;57318;56.232;43.944;2023-04-10T00:25:56;100001.88;;;5.68;36.32
69980;BME280;57318;56.232;43.944;2023-04-10T00:28:21;100000.97;;;5.69;36.46
69980;BME280;57318;56.232;43.944;2023-04-10T00:30:47;100000.97;;;5.69;36.00
69980;BME280;57318;56.232;43.944;2023-04-10T00:33:13;100001.94;;;5.67;36.50
69980;BME280;57318;56.232;43.944;2023-04-10T00:35:39;100005.59;;;5.64;36.46
69980;BME280;57318;56.232;43.944;2023-04-10T00:38:04;99999.47;;;5.64;36.84
69980;BME280;57318;56.232;43.944;2023-04-10T00:40:30;99996.06;;;5.62;36.40
69980;BME280;57318;56.232;43.944;2023-04-10T00:42:56;99990.94;;;5.58;36.82
69980;BME280;57318;56.232;43.944;2023-04-10T00:45:22;99996.31;;;5.57;36.91
69980;BME280;57318;56.232;43.944;2023-04-10T00:47:48;99990.41;;;5.52;36.63
69980;BME280;57318;56.232;43.944;2023-04-10T00:50:13;99996.59;;;5.51;36.76
69980;BME280;57318;56.232;43.944;2023-04-10T00:52:39;99994.28;;;5.45;37.23
69980;BME280;57318;56.232;43.944;2023-04-10T00:55:06;99996.16;;;5.42;37.69
69980;BME280;57318;56.232;43.944;2023-04-10T00:57:32;99985.91;;;5.36;37.77
69980;BME280;57318;56.232;43.944;2023-04-10T00:59:59;99993.16;;;5.31;37.41
69980;BME280;57318;56.232;43.944;2023-04-10T01:02:25;99989.84;;;5.28;37.46
69980;BME280;57318;56.232;43.944;2023-04-10T01:04:50;99991.69;;;5.26;37.17
69980;BME280;57318;56.232;43.944;2023-04-10T01:07:49;99992.47;;;5.28;36.91
69980;BME280;57318;56.232;43.944;2023-04-10T01:10:24;99990.59;;;5.30;36.87
69980;BME280;57318;56.232;43.944;2023-04-10T01:16:09;99988.31;;;5.23;37.54
69980;BME280;57318;56.232;43.944;2023-04-10T01:21:35;99985.09;;;5.17;37.51
69980;BME280;57318;56.232;43.944;2023-04-10T01:24:20;99987.81;;;5.15;37.55
69980;BME280;57318;56.232;43.944;2023-04-10T01:29:55;99993.94;;;5.16;37.21
69980;BME280;57318;56.232;43.944;2023-04-10T01:32:23;99992.22;;;5.15;37.57
69980;BME280;57318;56.232;43.944;2023-04-10T01:34:51;99995.78;;;5.14;37.46
69980;BME280;57318;56.232;43.944;2023-04-10T01:37:30;99990.66;;;5.11;37.30
69980;BME280;57318;56.232;43.944;2023-04-10T01:40:02;99994.31;;;5.08;37.66
69980;BME280;57318;56.232;43.944;2023-04-10T01:42:34;99994.53;;;5.03;37.92
69980;BME280;57318;56.232;43.944;2023-04-10T01:45:03;99990.47;;;4.96;38.91
69980;BME280;57318;56.232;43.944;2023-04-10T01:47:30;99991.72;;;4.89;38.74
69980;BME280;57318;56.232;43.944;2023-04-10T01:49:57;99987.72;;;4.80;38.92
69980;BME280;57318;56.232;43.944;2023-04-10T01:52:23;99989.66;;;4.77;38.31
69980;BME280;57318;56.232;43.944;2023-04-10T01:54:50;99990.72;;;4.73;37.92
69980;BME280;57318;56.232;43.944;2023-04-10T01:57:18;99997.84;;;4.70;37.57
69980;BME280;57318;56.232;43.944;2023-04-10T01:59:44;99991.81;;;4.68;38.18
69980;BME280;57318;56.232;43.944;2023-04-10T02:02:09;99997.28;;;4.64;37.33
69980;BME280;57318;56.232;43.944;2023-04-10T02:04:36;99996.47;;;4.62;37.45
69980;BME280;57318;56.232;43.944;2023-04-10T02:07:23;99991.28;;;4.60;37.25
69980;BME280;57318;56.232;43.944;2023-04-10T02:10:01;99994.88;;;4.59;37.39
69980;BME280;57318;56.232;43.944;2023-04-10T02:12:31;99996.56;;;4.60;37.30
69980;BME280;57318;56.232;43.944;2023-04-10T02:15:01;99996.56;;;4.60;37.06
69980;BME280;57318;56.232;43.944;2023-04-10T02:17:30;99994.00;;;4.59;37.13
69980;BME280;57318;56.232;43.944;2023-04-10T02:19:57;99989.59;;;4.59;37.02
69980;BME280;57318;56.232;43.944;2023-04-10T02:22:23;99993.16;;;4.58;37.76
69980;BME280;57318;56.232;43.944;2023-04-10T02:24:51;99995.78;;;4.58;37.49
69980;BME280;57318;56.232;43.944;2023-04-10T02:27:30;99997.50;;;4.59;37.73
69980;BME280;57318;56.232;43.944;2023-04-10T02:29:56;99993.16;;;4.58;37.92
69980;BME280;57318;56.232;43.944;2023-04-10T02:32:22;99994.94;;;4.58;38.26
69980;BME280;57318;56.232;43.944;2023-04-10T02:34:48;99994.13;;;4.56;38.56
69980;BME280;57318;56.232;43.944;2023-04-10T02:37:14;99996.13;;;4.50;38.16
69980;BME280;57318;56.232;43.944;2023-04-10T02:39:41;99995.44;;;4.47;38.79
69980;BME280;57318;56.232;43.944;2023-04-10T02:42:06;99997.25;;;4.45;38.54
69980;BME280;57318;56.232;43.944;2023-04-10T02:44:32;99992.94;;;4.44;38.57
69980;BME280;57318;56.232;43.944;2023-04-10T02:46:58;100000.75;;;4.45;38.67
69980;BME280;57318;56.232;43.944;2023-04-10T02:49:23;99997.34;;;4.43;39.14
69980;BME280;57318;56.232;43.944;2023-04-10T02:51:50;99994.06;;;4.38;40.00
69980;BME280;57318;56.232;43.944;2023-04-10T02:54:15;99996.91;;;4.33;40.71
69980;BME280;57318;56.232;43.944;2023-04-10T02:56:41;99999.78;;;4.27;41.36
69980;BME280;57318;56.232;43.944;2023-04-10T02:59:07;100001.84;;;4.21;41.82
69980;BME280;57318;56.232;43.944;2023-04-10T03:01:36;100003.91;;;4.14;42.46
69980;BME280;57318;56.232;43.944;2023-04-10T03:04:04;100004.19;;;4.08;43.04
69980;BME280;57318;56.232;43.944;2023-04-10T03:06:30;100005.28;;;4.02;43.72
69980;BME280;57318;56.232;43.944;2023-04-10T03:08:55;100008.13;;;3.97;43.74
69980;BME280;57318;56.232;43.944;2023-04-10T03:11:21;100007.47;;;3.92;43.15
69980;BME280;57318;56.232;43.944;2023-04-10T03:13:47;100006.63;;;3.92;42.64
69980;BME280;57318;56.232;43.944;2023-04-10T03:16:14;100008.25;;;3.94;43.50
69980;BME280;57318;56.232;43.944;2023-04-10T03:18:40;100015.94;;;3.99;42.52
69980;BME280;57318;56.232;43.944;2023-04-10T03:21:06;100007.03;;;4.03;41.32
69980;BME280;57318;56.232;43.944;2023-04-10T03:23:31;100008.34;;;4.13;41.00
69980;BME280;57318;56.232;43.944;2023-04-10T03:25:57;100007.06;;;4.22;39.99
69980;BME280;57318;56.232;43.944;2023-04-10T03:28:23;100008.34;;;4.32;39.25
69980;BME280;57318;56.232;43.944;2023-04-10T03:30:49;100006.94;;;4.44;39.07
69980;BME280;57318;56.232;43.944;2023-04-10T03:33:15;100014.34;;;4.55;38.61
69980;BME280;57318;56.232;43.944;2023-04-10T03:35:41;100007.81;;;4.64;38.05
69980;BME280;57318;56.232;43.944;2023-04-10T03:38:07;100010.88;;;4.74;37.92
69980;BME280;57318;56.232;43.944;2023-04-10T03:40:33;100013.91;;;4.83;37.35
69980;BME280;57318;56.232;43.944;2023-04-10T03:42:59;100009.50;;;4.84;37.34
69980;BME280;57318;56.232;43.944;2023-04-10T03:45:25;100015.28;;;4.92;37.08
69980;BME280;57318;56.232;43.944;2023-04-10T03:47:51;100022.72;;;5.01;36.91
69980;BME280;57318;56.232;43.944;2023-04-10T03:50:17;100022.41;;;5.07;36.94
69980;BME280;57318;56.232;43.944;2023-04-10T03:52:43;100021.41;;;5.10;36.53
69980;BME280;57318;56.232;43.944;2023-04-10T03:55:09;100024.75;;;5.14;36.45
69980;BME280;57318;56.232;43.944;2023-04-10T03:57:34;100024.53;;;5.18;36.28
69980;BME280;57318;56.232;43.944;2023-04-10T04:00:00;100026.03;;;5.24;35.68
69980;BME280;57318;56.232;43.944;2023-04-10T04:02:28;100028.28;;;5.32;35.73
69980;BME280;57318;56.232;43.944;2023-04-10T04:04:54;100027.03;;;5.39;35.45
69980;BME280;57318;56.232;43.944;2023-04-10T04:07:20;100030.19;;;5.47;35.57
69980;BME280;57318;56.232;43.944;2023-04-10T04:09:45;100033.22;;;5.57;35.72
69980;BME280;57318;56.232;43.944;2023-04-10T04:12:11;100025.84;;;5.64;35.56
69980;BME280;57318;56.232;43.944;2023-04-10T04:14:36;100021.03;;;5.72;34.54
69980;BME280;57318;56.232;43.944;2023-04-10T04:17:02;100028.47;;;5.81;34.40
69980;BME280;57318;56.232;43.944;2023-04-10T04:19:28;100027.94;;;5.92;34.27
69980;BME280;57318;56.232;43.944;2023-04-10T04:21:54;100020.41;;;6.02;34.19
69980;BME280;57318;56.232;43.944;2023-04-10T04:24:19;100026.84;;;6.13;33.30
69980;BME280;57318;56.232;43.944;2023-04-10T04:26:46;100023.75;;;6.23;32.96
69980;BME280;57318;56.232;43.944;2023-04-10T04:29:12;100026.66;;;6.34;32.68
69980;BME280;57318;56.232;43.944;2023-04-10T04:31:37;100024.97;;;6.49;32.87
69980;BME280;57318;56.232;43.944;2023-04-10T04:34:03;100025.94;;;6.64;31.61
69980;BME280;57318;56.232;43.944;2023-04-10T04:36:29;100016.41;;;6.77;31.11
69980;BME280;57318;56.232;43.944;2023-04-10T04:38:55;100016.38;;;6.93;30.26
69980;BME280;57318;56.232;43.944;2023-04-10T04:41:21;100020.91;;;7.07;30.77
69980;BME280;57318;56.232;43.944;2023-04-10T04:43:46;100027.88;;;7.24;29.77
69980;BME280;57318;56.232;43.944;2023-04-10T04:46:14;100020.72;;;7.42;29.61
69980;BME280;57318;56.232;43.944;2023-04-10T04:48:40;100023.41;;;7.56;28.84
69980;BME280;57318;56.232;43.944;2023-04-10T04:51:06;100021.72;;;7.70;28.56
69980;BME280;57318;56.232;43.944;2023-04-10T04:53:32;100021.94;;;7.81;28.34
69980;BME280;57318;56.232;43.944;2023-04-10T04:55:57;100024.47;;;7.99;28.46
69980;BME280;57318;56.232;43.944;2023-04-10T04:58:23;100033.16;;;8.15;28.09
69980;BME280;57318;56.232;43.944;2023-04-10T05:00:50;100026.28;;;8.27;28.26
69980;BME280;57318;56.232;43.944;2023-04-10T05:03:16;100026.28;;;8.41;27.83
69980;BME280;57318;56.232;43.944;2023-04-10T05:05:42;100031.59;;;8.56;28.08
69980;BME280;57318;56.232;43.944;2023-04-10T05:08:08;100041.53;;;8.66;28.66
69980;BME280;57318;56.232;43.944;2023-04-10T05:10:34;100033.84;;;8.76;29.11
69980;BME280;57318;56.232;43.944;2023-04-10T05:13:00;100035.94;;;8.85;28.89
69980;BME280;57318;56.232;43.944;2023-04-10T05:15:26;100039.78;;;8.94;28.77
69980;BME280;57318;56.232;43.944;2023-04-10T05:17:52;100033.06;;;9.03;29.18
69980;BME280;57318;56.232;43.944;2023-04-10T05:20:18;100036.06;;;9.11;29.04
69980;BME280;57318;56.232;43.944;2023-04-10T05:22:44;100032.16;;;9.17;28.98
69980;BME280;57318;56.232;43.944;2023-04-10T05:25:10;100038.94;;;9.21;28.96
69980;BME280;57318;56.232;43.944;2023-04-10T05:27:36;100046.50;;;9.27;28.96
69980;BME280;57318;56.232;43.944;2023-04-10T05:30:02;100044.44;;;9.32;28.86
69980;BME280;57318;56.232;43.944;2023-04-10T05:32:28;100048.38;;;9.39;28.83
69980;BME280;57318;56.232;43.944;2023-04-10T05:34:54;100045.97;;;9.49;28.81
69980;BME280;57318;56.232;43.944;2023-04-10T05:37:20;100044.50;;;9.58;28.47
69980;BME280;57318;56.232;43.944;2023-04-10T05:39:45;100049.22;;;9.67;28.38
69980;BME280;57318;56.232;43.944;2023-04-10T05:42:11;100048.59;;;9.77;27.93
69980;BME280;57318;56.232;43.944;2023-04-10T05:44:38;100050.63;;;9.86;27.96
69980;BME280;57318;56.232;43.944;2023-04-10T05:47:04;100048.09;;;9.97;27.63
69980;BME280;57318;56.232;43.944;2023-04-10T05:49:30;100057.13;;;10.07;27.60
69980;BME280;57318;56.232;43.944;2023-04-10T05:51:55;100052.06;;;10.17;27.08
69980;BME280;57318;56.232;43.944;2023-04-10T05:54:21;100054.94;;;10.27;26.36
69980;BME280;57318;56.232;43.944;2023-04-10T05:56:47;100066.06;;;10.32;26.67
69980;BME280;57318;56.232;43.944;2023-04-10T05:59:13;100052.94;;;10.43;26.61
69980;BME280;57318;56.232;43.944;2023-04-10T06:01:39;100061.88;;;10.55;26.31
69980;BME280;57318;56.232;43.944;2023-04-10T06:04:05;100060.03;;;10.69;25.93
69980;BME280;57318;56.232;43.944;2023-04-10T06:06:31;100067.13;;;10.81;25.74
69980;BME280;57318;56.232;43.944;2023-04-10T06:08:58;100072.41;;;10.94;25.07
69980;BME280;57318;56.232;43.944;2023-04-10T06:11:24;100063.56;;;11.06;25.11
69980;BME280;57318;56.232;43.944;2023-04-10T06:13:52;100060.63;;;11.22;24.93
69980;BME280;57318;56.232;43.944;2023-04-10T06:16:17;100064.81;;;11.86;24.25
69980;BME280;57318;56.232;43.944;2023-04-10T06:18:43;100060.72;;;13.63;22.22
69980;BME280;57318;56.232;43.944;2023-04-10T06:21:09;100059.47;;;15.93;20.08
69980;BME280;57318;56.232;43.944;2023-04-10T06:23:34;100073.16;;;18.30;18.12
69980;BME280;57318;56.232;43.944;2023-04-10T06:26:01;100071.22;;;20.59;15.93
69980;BME280;57318;56.232;43.944;2023-04-10T06:28:28;100082.47;;;22.65;14.12
69980;BME280;57318;56.232;43.944;2023-04-10T06:30:53;100080.25;;;24.37;12.74
69980;BME280;57318;56.232;43.944;2023-04-10T06:33:19;100083.44;;;25.79;11.88
69980;BME280;57318;56.232;43.944;2023-04-10T06:35:45;100094.56;;;27.43;10.97
69980;BME280;57318;56.232;43.944;2023-04-10T06:38:11;100083.41;;;28.84;9.54
69980;BME280;57318;56.232;43.944;2023-04-10T06:40:36;100093.50;;;29.69;8.77
69980;BME280;57318;56.232;43.944;2023-04-10T06:43:02;100089.03;;;30.52;8.20
69980;BME280;57318;56.232;43.944;2023-04-10T06:45:28;100094.31;;;31.30;7.47
69980;BME280;57318;56.232;43.944;2023-04-10T06:47:54;100097.84;;;32.17;7.07
69980;BME280;57318;56.232;43.944;2023-04-10T06:50:19;100099.91;;;33.00;6.54
69980;BME280;57318;56.232;43.944;2023-04-10T06:52:46;100093.47;;;33.33;6.18
69980;BME280;57318;56.232;43.944;2023-04-10T06:55:11;100096.41;;;33.76;5.65
69980;BME280;57318;56.232;43.944;2023-04-10T06:57:38;100094.81;;;33.80;5.71
69980;BME280;57318;56.232;43.944;2023-04-10T07:00:05;100087.25;;;34.30;5.38
69980;BME280;57318;56.232;43.944;2023-04-10T07:02:31;100106.72;;;34.98;4.88
69980;BME280;57318;56.232;43.944;2023-04-10T07:04:57;100089.28;;;34.87;4.70
69980;BME280;57318;56.232;43.944;2023-04-10T07:07:22;100090.50;;;35.12;4.80
69980;BME280;57318;56.232;43.944;2023-04-10T07:09:48;100091.75;;;35.47;4.48
69980;BME280;57318;56.232;43.944;2023-04-10T07:12:14;100090.06;;;35.46;4.54
69980;BME280;57318;56.232;43.944;2023-04-10T07:14:39;100089.56;;;35.70;4.67
69980;BME280;57318;56.232;43.944;2023-04-10T07:17:05;100102.31;;;35.97;4.24
69980;BME280;57318;56.232;43.944;2023-04-10T07:19:31;100086.03;;;36.26;3.99
69980;BME280;57318;56.232;43.944;2023-04-10T07:21:57;100093.47;;;35.84;4.19
69980;BME280;57318;56.232;43.944;2023-04-10T07:24:23;100096.81;;;35.91;3.88
69980;BME280;57318;56.232;43.944;2023-04-10T07:26:48;100086.56;;;36.07;4.02
69980;BME280;57318;56.232;43.944;2023-04-10T07:29:14;100086.81;;;36.57;3.95
69980;BME280;57318;56.232;43.944;2023-04-10T07:31:40;100080.13;;;36.84;3.49
69980;BME280;57318;56.232;43.944;2023-04-10T07:34:06;100100.06;;;36.65;3.44
69980;BME280;57318;56.232;43.944;2023-04-10T07:36:32;100086.78;;;36.67;3.45
69980;BME280;57318;56.232;43.944;2023-04-10T07:38:58;100092.59;;;36.71;3.44
69980;BME280;57318;56.232;43.944;2023-04-10T07:41:24;100087.84;;;36.92;3.17
69980;BME280;57318;56.232;43.944;2023-04-10T07:43:49;100072.16;;;37.32;3.30
69980;BME280;57318;56.232;43.944;2023-04-10T07:46:16;100074.03;;;36.82;3.14
69980;BME280;57318;56.232;43.944;2023-04-10T07:48:42;100081.31;;;36.42;3.47
69980;BME280;57318;56.232;43.944;2023-04-10T07:51:09;100071.00;;;36.68;3.10
69980;BME280;57318;56.232;43.944;2023-04-10T07:53:35;100071.88;;;36.48;3.17
69980;BME280;57318;56.232;43.944;2023-04-10T07:56:01;100066.66;;;35.90;3.94
69980;BME280;57318;56.232;43.944;2023-04-10T07:58:27;100075.22;;;35.88;3.29
69980;BME280;57318;56.232;43.944;2023-04-10T08:00:53;100074.38;;;36.19;3.48
69980;BME280;57318;56.232;43.944;2023-04-10T08:03:18;100068.56;;;36.46;3.15
69980;BME280;57318;56.232;43.944;2023-04-10T08:05:44;100068.03;;;36.18;3.35
69980;BME280;57318;56.232;43.944;2023-04-10T08:08:10;100071.88;;;36.48;3.26
69980;BME280;57318;56.232;43.944;2023-04-10T08:10:36;100067.06;;;36.95;3.29
69980;BME280;57318;56.232;43.944;2023-04-10T08:13:04;100066.56;;;36.82;3.23
69980;BME280;57318;56.232;43.944;2023-04-10T08:15:30;100065.25;;;36.44;3.51
69980;BME280;57318;56.232;43.944;2023-04-10T08:17:56;100067.34;;;36.93;3.17
69980;BME280;57318;56.232;43.944;2023-04-10T08:20:21;100062.53;;;37.14;2.97
69980;BME280;57318;56.232;43.944;2023-04-10T08:22:47;100061.13;;;37.22;3.04
69980;BME280;57318;56.232;43.944;2023-04-10T08:25:13;100062.41;;;36.70;3.52
69980;BME280;57318;56.232;43.944;2023-04-10T08:27:39;100053.56;;;36.78;3.41
69980;BME280;57318;56.232;43.944;2023-04-10T08:30:06;100057.53;;;37.22;3.33
69980;BME280;57318;56.232;43.944;2023-04-10T08:32:32;100051.41;;;37.30;3.55
69980;BME280;57318;56.232;43.944;2023-04-10T08:34:57;100050.00;;;36.57;3.29
69980;BME280;57318;56.232;43.944;2023-04-10T08:37:24;100050.78;;;36.67;3.33
69980;BME280;57318;56.232;43.944;2023-04-10T08:39:50;100044.19;;;36.53;3.41
69980;BME280;57318;56.232;43.944;2023-04-10T08:42:16;100038.94;;;36.57;3.55
69980;BME280;57318;56.232;43.944;2023-04-10T08:44:42;100041.97;;;36.50;3.35
69980;BME280;57318;56.232;43.944;2023-04-10T08:47:08;100035.09;;;36.47;3.68
69980;BME280;57318;56.232;43.944;2023-04-10T08:52:29;100037.22;;;36.71;3.29
69980;BME280;57318;56.232;43.944;2023-04-10T08:54:59;100032.84;;;37.25;3.03
69980;BME280;57318;56.232;43.944;2023-04-10T08:57:28;100034.78;;;37.69;2.93
69980;BME280;57318;56.232;43.944;2023-04-10T08:59:54;100039.09;;;38.20;3.04
69980;BME280;57318;56.232;43.944;2023-04-10T09:02:20;100036.75;;;38.57;2.56
69980;BME280;57318;56.232;43.944;2023-04-10T09:04:48;100036.25;;;38.50;2.50
69980;BME280;57318;56.232;43.944;2023-04-10T09:07:19;100031.00;;;38.48;2.68
69980;BME280;57318;56.232;43.944;2023-04-10T09:09:45;100032.53;;;38.06;2.72
69980;BME280;57318;56.232;43.944;2023-04-10T09:12:12;100031.56;;;37.52;2.58
69980;BME280;57318;56.232;43.944;2023-04-10T09:14:39;100029.88;;;37.06;2.94
69980;BME280;57318;56.232;43.944;2023-04-10T09:19:41;100026.81;;;37.58;3.13
69980;BME280;57318;56.232;43.944;2023-04-10T09:22:07;100025.53;;;37.84;3.25
69980;BME280;57318;56.232;43.944;2023-04-10T09:24:42;100019.94;;;37.50;3.32
69980;BME280;57318;56.232;43.944;2023-04-10T09:27:08;100024.56;;;37.15;3.09
69980;BME280;57318;56.232;43.944;2023-04-10T09:29:46;100020.66;;;37.26;3.19
69980;BME280;57318;56.232;43.944;2023-04-10T09:32:24;100018.09;;;36.85;3.33
69980;BME280;57318;56.232;43.944;2023-04-10T09:34:59;100013.09;;;36.87;3.18
69980;BME280;57318;56.232;43.944;2023-04-10T09:37:34;100022.59;;;37.65;2.95
69980;BME280;57318;56.232;43.944;2023-04-10T09:40:01;100016.19;;;37.30;3.16
69980;BME280;57318;56.232;43.944;2023-04-10T09:42:36;100012.66;;;37.59;2.87
69980;BME280;57318;56.232;43.944;2023-04-10T09:45:03;100014.25;;;37.70;2.85
69980;BME280;57318;56.232;43.944;2023-04-10T09:47:29;100023.25;;;37.52;3.27
69980;BME280;57318;56.232;43.944;2023-04-10T09:49:57;100016.19;;;37.75;2.83
69980;BME280;57318;56.232;43.944;2023-04-10T09:52:26;100025.88;;;38.36;2.86
69980;BME280;57318;56.232;43.944;2023-04-10T09:54:58;100021.97;;;38.86;2.53
69980;BME280;57318;56.232;43.944;2023-04-10T09:57:25;100019.28;;;38.99;2.47
69980;BME280;57318;56.232;43.944;2023-04-10T09:59:52;100015.22;;;38.92;2.35
69980;BME280;57318;56.232;43.944;2023-04-10T10:02:23;100017.75;;;38.69;2.44
69980;BME280;57318;56.232;43.944;2023-04-10T10:04:50;100014.13;;;38.69;2.34
69980;BME280;57318;56.232;43.944;2023-04-10T10:07:18;100017.31;;;39.24;2.30
69980;BME280;57318;56.232;43.944;2023-04-10T10:09:48;100012.16;;;39.50;2.22
69980;BME280;57318;56.232;43.944;2023-04-10T10:12:21;100016.75;;;39.79;2.28
69980;BME280;57318;56.232;43.944;2023-04-10T10:14:53;100017.63;;;39.23;2.20
69980;BME280;57318;56.232;43.944;2023-04-10T10:17:23;100008.03;;;39.10;2.25
69980;BME280;57318;56.232;43.944;2023-04-10T10:20:12;100006.22;;;39.38;2.18
69980;BME280;57318;56.232;43.944;2023-04-10T10:22:42;100004.31;;;39.20;2.28
69980;BME280;57318;56.232;43.944;2023-04-10T10:25:08;100004.22;;;39.25;2.14
69980;BME280;57318;56.232;43.944;2023-04-10T10:27:39;100006.31;;;39.33;2.20
69980;BME280;57318;56.232;43.944;2023-04-10T10:30:07;100011.66;;;39.67;2.02
69980;BME280;57318;56.232;43.944;2023-04-10T10:32:36;100007.94;;;39.72;2.13
69980;BME280;57318;56.232;43.944;2023-04-10T10:35:02;100004.91;;;39.16;2.15
69980;BME280;57318;56.232;43.944;2023-04-10T10:37:29;100004.50;;;39.04;2.22
69980;BME280;57318;56.232;43.944;2023-04-10T10:40:15;99995.63;;;38.59;2.28
69980;BME280;57318;56.232;43.944;2023-04-10T10:46:02;99995.97;;;37.69;2.55
69980;BME280;57318;56.232;43.944;2023-04-10T10:48:28;99991.75;;;37.37;2.84
69980;BME280;57318;56.232;43.944;2023-04-10T10:50:58;99986.44;;;37.81;2.86
69980;BME280;57318;56.232;43.944;2023-04-10T10:53:44;99986.69;;;37.50;2.99
69980;BME280;57318;56.232;43.944;2023-04-10T10:58:51;99985.25;;;37.52;2.81
69980;BME280;57318;56.232;43.944;2023-04-10T11:01:19;99981.09;;;37.55;2.96
69980;BME280;57318;56.232;43.944;2023-04-10T11:03:46;99982.91;;;37.35;2.98
69980;BME280;57318;56.232;43.944;2023-04-10T11:06:15;99975.91;;;36.98;3.24
69980;BME280;57318;56.232;43.944;2023-04-10T11:08:50;99980.44;;;36.84;3.04
69980;BME280;57318;56.232;43.944;2023-04-10T11:11:21;99971.97;;;37.10;3.00
69980;BME280;57318;56.232;43.944;2023-04-10T11:21:20;99963.84;;;36.74;3.11
69980;BME280;57318;56.232;43.944;2023-04-10T11:31:56;99956.66;;;37.23;3.24
69980;BME280;57318;56.232;43.944;2023-04-10T11:34:23;99956.19;;;37.50;3.06
69980;BME280;57318;56.232;43.944;2023-04-10T11:36:48;99955.63;;;37.48;2.99
69980;BME280;57318;56.232;43.944;2023-04-10T11:39:15;99955.56;;;37.58;3.03
69980;BME280;57318;56.232;43.944;2023-04-10T11:41:50;99952.41;;;37.70;3.02
69980;BME280;57318;56.232;43.944;2023-04-10T11:46:52;99952.66;;;37.39;3.09
69980;BME280;57318;56.232;43.944;2023-04-10T11:49:26;99944.78;;;37.17;3.18
69980;BME280;57318;56.232;43.944;2023-04-10T11:51:52;99948.91;;;36.64;3.22
69980;BME280;57318;56.232;43.944;2023-04-10T11:54:24;99938.53;;;36.36;3.63
69980;BME280;57318;56.232;43.944;2023-04-10T11:57:02;99943.06;;;35.49;3.39
69980;BME280;57318;56.232;43.944;2023-04-10T11:59:30;99944.44;;;35.31;3.46
69980;BME280;57318;56.232;43.944;2023-04-10T12:02:11;99928.59;;;34.91;3.66
69980;BME280;57318;56.232;43.944;2023-04-10T12:04:41;99926.44;;;35.03;3.72
69980;BME280;57318;56.232;43.944;2023-04-10T12:07:08;99930.50;;;34.80;4.01
69980;BME280;57318;56.232;43.944;2023-04-10T12:09:34;99923.47;;;34.46;4.00
69980;BME280;57318;56.232;43.944;2023-04-10T12:12:02;99920.72;;;34.46;4.00
69980;BME280;57318;56.232;43.944;2023-04-10T12:14:33;99915.38;;;34.24;3.93
69980;BME280;57318;56.232;43.944;2023-04-10T12:17:04;99920.06;;;34.24;4.21
69980;BME280;57318;56.232;43.944;2023-04-10T12:19:39;99910.97;;;34.23;4.17
69980;BME280;57318;56.232;43.944;2023-04-10T12:26:08;99910.28;;;34.59;4.04
69980;BME280;57318;56.232;43.944;2023-04-10T12:28:38;99910.81;;;34.56;4.00
69980;BME280;57318;56.232;43.944;2023-04-10T12:31:04;99906.63;;;33.95;4.08
69980;BME280;57318;56.232;43.944;2023-04-10T12:33:30;99899.66;;;33.77;4.26
69980;BME280;57318;56.232;43.944;2023-04-10T12:35:56;99901.28;;;33.78;4.27
69980;BME280;57318;56.232;43.944;2023-04-10T12:38:42;99898.28;;;33.79;4.07
69980;BME280;57318;56.232;43.944;2023-04-10T12:41:10;99893.81;;;33.73;3.98
69980;BME280;57318;56.232;43.944;2023-04-10T12:43:38;99894.09;;;33.72;4.00
69980;BME280;57318;56.232;43.944;2023-04-10T12:46:06;99892.91;;;33.25;4.17
69980;BME280;57318;56.232;43.944;2023-04-10T12:48:32;99886.44;;;32.87;4.05
69980;BME280;57318;56.232;43.944;2023-04-10T12:51:01;99873.34;;;32.72;4.34
69980;BME280;57318;56.232;43.944;2023-04-10T12:53:28;99886.47;;;32.43;4.42
69980;BME280;57318;56.232;43.944;2023-04-10T12:56:04;99882.44;;;32.28;4.53
69980;BME280;57318;56.232;43.944;2023-04-10T12:58:31;99879.50;;;32.35;4.56
69980;BME280;57318;56.232;43.944;2023-04-10T13:01:02;99884.53;;;32.21;4.75
69980;BME280;57318;56.232;43.944;2023-04-10T13:03:36;99874.13;;;31.50;4.63
69980;BME280;57318;56.232;43.944;2023-04-10T13:06:04;99879.88;;;30.86;5.36
69980;BME280;57318;56.232;43.944;2023-04-10T13:08:30;99869.03;;;30.62;5.07
69980;BME280;57318;56.232;43.944;2023-04-10T13:10:58;99859.31;;;30.31;5.34
69980;BME280;57318;56.232;43.944;2023-04-10T13:13:30;99861.16;;;30.13;5.80
69980;BME280;57318;56.232;43.944;2023-04-10T13:15:58;99871.28;;;30.13;5.57
69980;BME280;57318;56.232;43.944;2023-04-10T13:18:24;99859.56;;;29.89;5.63
69980;BME280;57318;56.232;43.944;2023-04-10T13:20:50;99858.44;;;29.66;5.86
69980;BME280;57318;56.232;43.944;2023-04-10T13:23:15;99845.34;;;29.44;6.05
69980;BME280;57318;56.232;43.944;2023-04-10T13:25:42;99858.91;;;29.27;6.04
69980;BME280;57318;56.232;43.944;2023-04-10T13:28:07;99855.88;;;29.05;6.30
69980;BME280;57318;56.232;43.944;2023-04-10T13:30:38;99845.47;;;28.84;5.92
69980;BME280;57318;56.232;43.944;2023-04-10T13:33:04;99846.41;;;28.89;6.01
69980;BME280;57318;56.232;43.944;2023-04-10T13:35:30;99848.91;;;28.91;5.96
69980;BME280;57318;56.232;43.944;2023-04-10T13:37:55;99854.72;;;28.83;6.39